sensor_id;sensor_type;location;lat;lon;timestamp;pressure;altitude;pressure_sealevel;temperature;humidity
52777;BME280;38656;54.260;20.822;2024-01-15T00:00:03;98319.69;;;9.59;100.00
52777;BME280;38656;54.260;20.822;2024-01-15T00:02:30;98317.84;;;9.67;100.00
52777;BME280;38656;54.260;20.822;2024-01-15T00:04:56;98312.31;;;9.54;100.00
52777;BME280;38656;54.260;20.822;2024-01-15T00:07:23;98307.19;;;10.55;100.00
52777;BME280;38656;54.260;20.822;2024-01-15T00:09:49;98307.34;;;10.30;100.00
52777;BME280;38656;54.260;20.822;2024-01-15T00:12:15;98316.06;;;6.19;100.00
52777;BME280;38656;54.260;20.822;2024-01-15T00:14:41;98308.03;;;5.47;100.00
52777;BME280;38656;54.260;20.822;2024-01-15T00:17:08;98300.72;;;6.25;100.00
52777;BME280;38656;54.260;20.822;2024-01-15T00:19:34;98302.84;;;5.28;100.00
52777;BME280;38656;54.260;20.822;2024-01-15T00:22:00;98289.72;;;6.21;100.00
52777;BME280;38656;54.260;20.822;2024-01-15T00:24:26;98277.72;;;6.36;100.00
52777;BME280;38656;54.260;20.822;2024-01-15T00:26:52;98280.56;;;5.79;100.00
52777;BME280;38656;54.260;20.822;2024-01-15T00:29:19;98269.38;;;5.59;100.00
52777;BME280;38656;54.260;20.822;2024-01-15T00:31:45;98266.28;;;4.61;100.00
52777;BME280;38656;54.260;20.822;2024-01-15T00:34:12;98264.69;;;5.35;100.00
52777;BME280;38656;54.260;20.822;2024-01-15T00:36:38;98263.31;;;4.93;100.00
52777;BME280;38656;54.260;20.822;2024-01-15T00:39:04;98267.38;;;5.16;100.00
52777;BME280;38656;54.260;20.822;2024-01-15T00:41:33;98271.63;;;4.50;100.00
52777;BME280;38656;54.260;20.822;2024-01-15T00:43:59;98267.66;;;5.12;100.00
52777;BME280;38656;54.260;20.822;2024-01-15T00:46:25;98254.78;;;4.91;100.00
52777;BME280;38656;54.260;20.822;2024-01-15T00:48:51;98271.22;;;5.49;100.00
52777;BME280;38656;54.260;20.822;2024-01-15T00:51:17;98251.19;;;5.02;100.00
52777;BME280;38656;54.260;20.822;2024-01-15T00:53:43;98258.50;;;5.36;100.00
52777;BME280;38656;54.260;20.822;2024-01-15T00:56:09;98239.19;;;6.73;100.00
52777;BME280;38656;54.260;20.822;2024-01-15T00:58:36;98245.78;;;5.69;100.00
52777;BME280;38656;54.260;20.822;2024-01-15T01:01:02;98245.75;;;6.33;100.00
52777;BME280;38656;54.260;20.822;2024-01-15T01:03:28;98234.47;;;6.14;100.00
52777;BME280;38656;54.260;20.822;2024-01-15T01:05:54;98224.53;;;6.44;100.00
52777;BME280;38656;54.260;20.822;2024-01-15T01:08:20;98226.38;;;6.26;100.00
52777;BME280;38656;54.260;20.822;2024-01-15T01:10:47;98230.75;;;5.43;100.00
52777;BME280;38656;54.260;20.822;2024-01-15T01:13:13;98228.72;;;5.09;100.00
52777;BME280;38656;54.260;20.822;2024-01-15T01:15:39;98213.72;;;6.39;100.00
52777;BME280;38656;54.260;20.822;2024-01-15T01:18:05;98206.63;;;5.49;100.00
52777;BME280;38656;54.260;20.822;2024-01-15T01:20:31;98205.34;;;5.99;100.00
52777;BME280;38656;54.260;20.822;2024-01-15T01:22:58;98209.19;;;6.49;100.00
52777;BME280;38656;54.260;20.822;2024-01-15T01:25:24;98199.25;;;5.81;100.00
52777;BME280;38656;54.260;20.822;2024-01-15T01:27:50;98194.97;;;5.44;100.00
52777;BME280;38656;54.260;20.822;2024-01-15T01:30:16;98181.81;;;6.26;100.00
52777;BME280;38656;54.260;20.822;2024-01-15T01:32:42;98193.44;;;5.41;100.00
52777;BME280;38656;54.260;20.822;2024-01-15T01:35:09;98183.44;;;6.71;100.00
52777;BME280;38656;54.260;20.822;2024-01-15T01:37:35;98182.16;;;6.75;100.00
52777;BME280;38656;54.260;20.822;2024-01-15T01:40:01;98184.22;;;5.65;100.00
52777;BME280;38656;54.260;20.822;2024-01-15T01:42:27;98175.44;;;5.10;100.00
52777;BME280;38656;54.260;20.822;2024-01-15T01:44:53;98165.56;;;6.40;100.00
52777;BME280;38656;54.260;20.822;2024-01-15T01:47:19;98166.56;;;5.67;100.00
52777;BME280;38656;54.260;20.822;2024-01-15T01:49:46;98160.94;;;6.68;100.00
52777;BME280;38656;54.260;20.822;2024-01-15T01:52:13;98153.66;;;6.28;100.00
52777;BME280;38656;54.260;20.822;2024-01-15T01:54:40;98147.41;;;5.48;100.00
52777;BME280;38656;54.260;20.822;2024-01-15T01:57:07;98155.69;;;5.44;100.00
52777;BME280;38656;54.260;20.822;2024-01-15T01:59:35;98143.75;;;5.13;100.00
52777;BME280;38656;54.260;20.822;2024-01-15T02:02:04;98142.13;;;5.03;100.00
52777;BME280;38656;54.260;20.822;2024-01-15T02:04:31;98136.63;;;5.88;100.00
52777;BME280;38656;54.260;20.822;2024-01-15T02:06:59;98138.25;;;5.17;100.00
52777;BME280;38656;54.260;20.822;2024-01-15T02:09:26;98127.22;;;7.16;100.00
52777;BME280;38656;54.260;20.822;2024-01-15T02:11:52;98127.94;;;5.33;100.00
52777;BME280;38656;54.260;20.822;2024-01-15T02:14:18;98132.28;;;5.24;100.00
52777;BME280;38656;54.260;20.822;2024-01-15T02:16:45;98122.56;;;5.89;100.00
52777;BME280;38656;54.260;20.822;2024-01-15T02:19:17;98122.13;;;5.75;100.00
52777;BME280;38656;54.260;20.822;2024-01-15T02:21:44;98107.31;;;5.66;100.00
52777;BME280;38656;54.260;20.822;2024-01-15T02:24:11;98097.53;;;6.12;100.00
52777;BME280;38656;54.260;20.822;2024-01-15T02:26:37;98100.66;;;5.72;100.00
52777;BME280;38656;54.260;20.822;2024-01-15T02:29:07;98101.66;;;5.53;100.00
52777;BME280;38656;54.260;20.822;2024-01-15T02:31:36;98096.56;;;5.51;100.00
52777;BME280;38656;54.260;20.822;2024-01-15T02:34:02;98091.75;;;4.45;100.00
52777;BME280;38656;54.260;20.822;2024-01-15T02:36:28;98087.28;;;6.19;100.00
52777;BME280;38656;54.260;20.822;2024-01-15T02:38:54;98091.16;;;5.53;100.00
52777;BME280;38656;54.260;20.822;2024-01-15T02:41:20;98081.50;;;5.53;100.00
52777;BME280;38656;54.260;20.822;2024-01-15T02:43:46;98067.06;;;7.31;100.00
52777;BME280;38656;54.260;20.822;2024-01-15T02:46:12;98074.75;;;6.05;100.00
52777;BME280;38656;54.260;20.822;2024-01-15T02:48:39;98069.78;;;5.39;100.00
52777;BME280;38656;54.260;20.822;2024-01-15T02:51:05;98060.63;;;5.43;100.00
52777;BME280;38656;54.260;20.822;2024-01-15T02:53:31;98061.03;;;5.48;100.00
52777;BME280;38656;54.260;20.822;2024-01-15T02:55:57;98057.59;;;5.48;100.00
52777;BME280;38656;54.260;20.822;2024-01-15T02:58:23;98050.88;;;5.90;100.00
52777;BME280;38656;54.260;20.822;2024-01-15T03:00:49;98053.19;;;5.48;100.00
52777;BME280;38656;54.260;20.822;2024-01-15T03:03:15;98049.78;;;5.02;100.00
52777;BME280;38656;54.260;20.822;2024-01-15T03:05:41;98060.81;;;4.78;100.00
52777;BME280;38656;54.260;20.822;2024-01-15T03:08:08;98050.25;;;6.48;100.00
52777;BME280;38656;54.260;20.822;2024-01-15T03:10:34;98045.13;;;4.13;100.00
52777;BME280;38656;54.260;20.822;2024-01-15T03:13:00;98046.63;;;4.81;100.00
52777;BME280;38656;54.260;20.822;2024-01-15T03:15:26;98038.44;;;4.38;100.00
52777;BME280;38656;54.260;20.822;2024-01-15T03:17:52;98042.66;;;4.76;100.00
52777;BME280;38656;54.260;20.822;2024-01-15T03:20:18;98028.38;;;5.17;100.00
52777;BME280;38656;54.260;20.822;2024-01-15T03:22:44;98035.16;;;5.27;100.00
52777;BME280;38656;54.260;20.822;2024-01-15T03:25:11;98022.50;;;5.59;100.00
52777;BME280;38656;54.260;20.822;2024-01-15T03:27:37;98031.25;;;5.94;100.00
52777;BME280;38656;54.260;20.822;2024-01-15T03:30:03;98032.31;;;6.01;100.00
52777;BME280;38656;54.260;20.822;2024-01-15T03:32:30;98025.19;;;5.49;100.00
52777;BME280;38656;54.260;20.822;2024-01-15T03:34:56;98021.59;;;5.94;100.00
52777;BME280;38656;54.260;20.822;2024-01-15T03:37:22;98009.66;;;5.47;100.00
52777;BME280;38656;54.260;20.822;2024-01-15T03:39:48;97999.50;;;5.08;100.00
52777;BME280;38656;54.260;20.822;2024-01-15T03:42:14;97995.44;;;6.29;100.00
52777;BME280;38656;54.260;20.822;2024-01-15T03:44:40;97996.44;;;5.31;100.00
52777;BME280;38656;54.260;20.822;2024-01-15T03:47:06;97994.63;;;5.49;100.00
52777;BME280;38656;54.260;20.822;2024-01-15T03:49:33;97990.91;;;5.16;100.00
52777;BME280;38656;54.260;20.822;2024-01-15T03:51:59;97995.09;;;5.27;100.00
52777;BME280;38656;54.260;20.822;2024-01-15T03:54:25;97994.56;;;4.87;100.00
52777;BME280;38656;54.260;20.822;2024-01-15T03:56:52;97984.53;;;7.17;100.00
52777;BME280;38656;54.260;20.822;2024-01-15T03:59:18;97987.19;;;6.15;100.00
52777;BME280;38656;54.260;20.822;2024-01-15T04:01:51;97992.75;;;5.24;100.00
52777;BME280;38656;54.260;20.822;2024-01-15T04:04:18;97999.06;;;4.49;100.00
52777;BME280;38656;54.260;20.822;2024-01-15T04:06:44;97979.22;;;4.29;100.00
52777;BME280;38656;54.260;20.822;2024-01-15T04:09:12;97958.06;;;4.50;100.00
52777;BME280;38656;54.260;20.822;2024-01-15T04:11:39;97964.69;;;5.26;100.00
52777;BME280;38656;54.260;20.822;2024-01-15T04:14:06;97957.34;;;4.75;100.00
52777;BME280;38656;54.260;20.822;2024-01-15T04:16:32;97952.53;;;4.53;100.00
52777;BME280;38656;54.260;20.822;2024-01-15T04:18:58;97949.59;;;5.20;100.00
52777;BME280;38656;54.260;20.822;2024-01-15T04:21:24;97944.38;;;5.98;100.00
52777;BME280;38656;54.260;20.822;2024-01-15T04:23:50;97941.03;;;6.73;100.00
52777;BME280;38656;54.260;20.822;2024-01-15T04:26:16;97942.53;;;5.91;100.00
52777;BME280;38656;54.260;20.822;2024-01-15T04:28:43;97932.47;;;6.04;100.00
52777;BME280;38656;54.260;20.822;2024-01-15T04:31:09;97930.00;;;5.76;100.00
52777;BME280;38656;54.260;20.822;2024-01-15T04:33:35;97931.94;;;5.22;100.00
52777;BME280;38656;54.260;20.822;2024-01-15T04:36:04;97935.47;;;5.12;100.00
52777;BME280;38656;54.260;20.822;2024-01-15T04:38:34;97930.44;;;5.01;100.00
52777;BME280;38656;54.260;20.822;2024-01-15T04:41:02;97912.97;;;5.72;100.00
52777;BME280;38656;54.260;20.822;2024-01-15T04:43:28;97906.63;;;5.48;100.00
52777;BME280;38656;54.260;20.822;2024-01-15T04:45:54;97901.31;;;5.40;100.00
52777;BME280;38656;54.260;20.822;2024-01-15T04:48:21;97914.75;;;5.01;100.00
52777;BME280;38656;54.260;20.822;2024-01-15T04:50:49;97903.53;;;5.27;100.00
52777;BME280;38656;54.260;20.822;2024-01-15T04:53:15;97900.59;;;4.68;100.00
52777;BME280;38656;54.260;20.822;2024-01-15T04:55:41;97895.66;;;4.83;100.00
52777;BME280;38656;54.260;20.822;2024-01-15T04:58:07;97891.94;;;4.67;100.00
52777;BME280;38656;54.260;20.822;2024-01-15T05:00:33;97891.97;;;3.94;100.00
52777;BME280;38656;54.260;20.822;2024-01-15T05:02:59;97878.28;;;4.55;100.00
52777;BME280;38656;54.260;20.822;2024-01-15T05:05:25;97875.16;;;4.06;100.00
52777;BME280;38656;54.260;20.822;2024-01-15T05:07:52;97873.75;;;3.84;100.00
52777;BME280;38656;54.260;20.822;2024-01-15T05:10:18;97871.81;;;3.86;100.00
52777;BME280;38656;54.260;20.822;2024-01-15T05:12:45;97874.13;;;4.89;100.00
52777;BME280;38656;54.260;20.822;2024-01-15T05:15:11;97866.84;;;5.79;100.00
52777;BME280;38656;54.260;20.822;2024-01-15T05:17:37;97866.72;;;6.32;100.00
52777;BME280;38656;54.260;20.822;2024-01-15T05:20:03;97860.84;;;5.53;100.00
52777;BME280;38656;54.260;20.822;2024-01-15T05:22:30;97859.00;;;5.19;100.00
52777;BME280;38656;54.260;20.822;2024-01-15T05:24:57;97858.00;;;4.75;100.00
52777;BME280;38656;54.260;20.822;2024-01-15T05:27:23;97853.13;;;6.28;100.00
52777;BME280;38656;54.260;20.822;2024-01-15T05:29:49;97855.53;;;5.36;100.00
52777;BME280;38656;54.260;20.822;2024-01-15T05:32:15;97860.41;;;3.59;100.00
52777;BME280;38656;54.260;20.822;2024-01-15T05:34:41;97851.56;;;5.32;100.00
52777;BME280;38656;54.260;20.822;2024-01-15T05:37:07;97842.25;;;7.94;100.00
52777;BME280;38656;54.260;20.822;2024-01-15T05:39:33;97841.44;;;6.06;100.00
52777;BME280;38656;54.260;20.822;2024-01-15T05:41:59;97830.72;;;11.17;100.00
52777;BME280;38656;54.260;20.822;2024-01-15T05:44:26;97836.28;;;6.31;100.00
52777;BME280;38656;54.260;20.822;2024-01-15T05:46:53;97837.22;;;6.13;100.00
52777;BME280;38656;54.260;20.822;2024-01-15T05:49:19;97826.47;;;6.99;100.00
52777;BME280;38656;54.260;20.822;2024-01-15T05:51:45;97831.66;;;7.23;100.00
52777;BME280;38656;54.260;20.822;2024-01-15T05:54:11;97831.50;;;4.88;100.00
52777;BME280;38656;54.260;20.822;2024-01-15T05:56:37;97822.03;;;4.33;100.00
52777;BME280;38656;54.260;20.822;2024-01-15T05:59:03;97822.38;;;5.88;100.00
52777;BME280;38656;54.260;20.822;2024-01-15T06:01:30;97823.06;;;4.04;100.00
52777;BME280;38656;54.260;20.822;2024-01-15T06:03:56;97821.44;;;3.76;100.00
52777;BME280;38656;54.260;20.822;2024-01-15T06:06:22;97813.84;;;5.85;100.00
52777;BME280;38656;54.260;20.822;2024-01-15T06:08:49;97808.63;;;9.95;100.00
52777;BME280;38656;54.260;20.822;2024-01-15T06:11:15;97800.97;;;8.81;100.00
52777;BME280;38656;54.260;20.822;2024-01-15T06:13:41;97798.09;;;8.91;100.00
52777;BME280;38656;54.260;20.822;2024-01-15T06:16:14;97796.31;;;11.10;100.00
52777;BME280;38656;54.260;20.822;2024-01-15T06:18:42;97793.03;;;9.19;100.00
52777;BME280;38656;54.260;20.822;2024-01-15T06:21:08;97807.38;;;7.30;100.00
52777;BME280;38656;54.260;20.822;2024-01-15T06:23:37;97814.03;;;7.49;100.00
52777;BME280;38656;54.260;20.822;2024-01-15T06:26:03;97801.06;;;7.95;100.00
52777;BME280;38656;54.260;20.822;2024-01-15T06:28:30;97788.25;;;9.89;100.00
52777;BME280;38656;54.260;20.822;2024-01-15T06:30:56;97796.66;;;8.42;100.00
52777;BME280;38656;54.260;20.822;2024-01-15T06:33:22;97799.34;;;8.02;100.00
52777;BME280;38656;54.260;20.822;2024-01-15T06:35:49;97795.50;;;8.67;100.00
52777;BME280;38656;54.260;20.822;2024-01-15T06:38:15;97794.75;;;9.12;100.00
52777;BME280;38656;54.260;20.822;2024-01-15T06:40:41;97793.66;;;9.06;100.00
52777;BME280;38656;54.260;20.822;2024-01-15T06:43:12;97783.19;;;8.83;100.00
52777;BME280;38656;54.260;20.822;2024-01-15T06:45:38;97787.59;;;9.50;100.00
52777;BME280;38656;54.260;20.822;2024-01-15T06:48:05;97779.34;;;9.90;100.00
52777;BME280;38656;54.260;20.822;2024-01-15T06:50:31;97773.97;;;8.41;100.00
52777;BME280;38656;54.260;20.822;2024-01-15T06:52:57;97775.97;;;9.15;100.00
52777;BME280;38656;54.260;20.822;2024-01-15T06:55:23;97774.91;;;10.27;100.00
52777;BME280;38656;54.260;20.822;2024-01-15T06:57:50;97783.28;;;9.79;93.06
52777;BME280;38656;54.260;20.822;2024-01-15T07:00:17;97779.97;;;9.92;100.00
52777;BME280;38656;54.260;20.822;2024-01-15T07:02:43;97776.66;;;10.20;100.00
52777;BME280;38656;54.260;20.822;2024-01-15T07:05:09;97775.75;;;10.77;100.00
52777;BME280;38656;54.260;20.822;2024-01-15T07:07:35;97776.25;;;10.38;97.65
52777;BME280;38656;54.260;20.822;2024-01-15T07:10:02;97763.84;;;13.47;91.15
52777;BME280;38656;54.260;20.822;2024-01-15T07:12:29;97772.13;;;11.83;93.47
52777;BME280;38656;54.260;20.822;2024-01-15T07:14:56;97746.31;;;27.37;35.40
52777;BME280;38656;54.260;20.822;2024-01-15T07:17:22;97766.28;;;23.84;36.17
52777;BME280;38656;54.260;20.822;2024-01-15T07:19:49;97761.16;;;23.82;34.78
52777;BME280;38656;54.260;20.822;2024-01-15T07:22:15;97758.69;;;28.22;31.67
52777;BME280;38656;54.260;20.822;2024-01-15T07:24:43;97770.53;;;22.94;37.57
52777;BME280;38656;54.260;20.822;2024-01-15T07:27:10;97759.44;;;24.07;37.77
52777;BME280;38656;54.260;20.822;2024-01-15T07:29:36;97776.13;;;21.09;37.92
52777;BME280;38656;54.260;20.822;2024-01-15T07:32:04;97766.97;;;24.15;37.57
52777;BME280;38656;54.260;20.822;2024-01-15T07:34:30;97773.50;;;19.00;42.02
52777;BME280;38656;54.260;20.822;2024-01-15T07:36:57;97768.69;;;20.84;39.19
52777;BME280;38656;54.260;20.822;2024-01-15T07:39:24;97778.88;;;19.78;40.81
52777;BME280;38656;54.260;20.822;2024-01-15T07:41:51;97773.63;;;19.88;40.65
52777;BME280;38656;54.260;20.822;2024-01-15T07:44:18;97768.97;;;21.78;37.01
52777;BME280;38656;54.260;20.822;2024-01-15T07:46:48;97765.41;;;22.36;37.52
52777;BME280;38656;54.260;20.822;2024-01-15T07:49:14;97769.66;;;24.10;36.27
52777;BME280;38656;54.260;20.822;2024-01-15T07:51:40;97778.28;;;18.98;39.58
52777;BME280;38656;54.260;20.822;2024-01-15T07:54:07;97779.09;;;19.54;40.59
52777;BME280;38656;54.260;20.822;2024-01-15T07:56:33;97769.81;;;21.84;39.37
52777;BME280;38656;54.260;20.822;2024-01-15T07:58:59;97768.72;;;20.29;39.48
52777;BME280;38656;54.260;20.822;2024-01-15T08:01:26;97776.84;;;20.12;39.80
52777;BME280;38656;54.260;20.822;2024-01-15T08:03:52;97769.94;;;20.16;41.86
52777;BME280;38656;54.260;20.822;2024-01-15T08:06:19;97782.31;;;19.56;39.22
52777;BME280;38656;54.260;20.822;2024-01-15T08:08:45;97775.63;;;18.98;41.18
52777;BME280;38656;54.260;20.822;2024-01-15T08:11:12;97764.53;;;22.15;38.14
52777;BME280;38656;54.260;20.822;2024-01-15T08:13:38;97763.31;;;20.24;40.19
52777;BME280;38656;54.260;20.822;2024-01-15T08:16:05;97759.16;;;24.59;36.32
52777;BME280;38656;54.260;20.822;2024-01-15T08:18:31;97779.41;;;20.84;37.09
52777;BME280;38656;54.260;20.822;2024-01-15T08:20:57;97778.72;;;23.85;34.42
52777;BME280;38656;54.260;20.822;2024-01-15T08:23:23;97774.59;;;22.91;37.34
52777;BME280;38656;54.260;20.822;2024-01-15T08:25:50;97769.69;;;24.89;33.41
52777;BME280;38656;54.260;20.822;2024-01-15T08:28:16;97773.59;;;21.93;35.68
52777;BME280;38656;54.260;20.822;2024-01-15T08:30:43;97771.53;;;25.23;33.55
52777;BME280;38656;54.260;20.822;2024-01-15T08:33:09;97767.00;;;22.37;35.91
52777;BME280;38656;54.260;20.822;2024-01-15T08:35:35;97773.97;;;24.16;33.75
52777;BME280;38656;54.260;20.822;2024-01-15T08:38:01;97765.56;;;23.63;33.47
52777;BME280;38656;54.260;20.822;2024-01-15T08:40:28;97783.47;;;22.76;35.17
52777;BME280;38656;54.260;20.822;2024-01-15T08:42:54;97788.03;;;22.55;33.76
52777;BME280;38656;54.260;20.822;2024-01-15T08:45:20;97782.94;;;22.79;35.00
52777;BME280;38656;54.260;20.822;2024-01-15T08:47:47;97797.06;;;20.75;35.21
52777;BME280;38656;54.260;20.822;2024-01-15T08:50:14;97787.03;;;23.94;31.04
52777;BME280;38656;54.260;20.822;2024-01-15T08:52:40;97767.66;;;27.25;30.36
52777;BME280;38656;54.260;20.822;2024-01-15T08:55:07;97781.34;;;24.85;31.73
52777;BME280;38656;54.260;20.822;2024-01-15T08:57:33;97779.91;;;24.58;31.31
52777;BME280;38656;54.260;20.822;2024-01-15T09:00:00;97774.16;;;25.58;31.15
52777;BME280;38656;54.260;20.822;2024-01-15T09:02:26;97775.59;;;24.91;31.02
52777;BME280;38656;54.260;20.822;2024-01-15T09:04:52;97777.91;;;26.43;30.57
52777;BME280;38656;54.260;20.822;2024-01-15T09:07:18;97775.06;;;21.58;34.93
52777;BME280;38656;54.260;20.822;2024-01-15T09:09:45;97770.25;;;23.01;33.04
52777;BME280;38656;54.260;20.822;2024-01-15T09:12:11;97774.81;;;22.38;33.66
52777;BME280;38656;54.260;20.822;2024-01-15T09:14:41;97768.84;;;23.39;30.23
52777;BME280;38656;54.260;20.822;2024-01-15T09:17:07;97758.56;;;24.56;32.02
52777;BME280;38656;54.260;20.822;2024-01-15T09:19:34;97763.16;;;23.56;32.67
52777;BME280;38656;54.260;20.822;2024-01-15T09:22:00;97766.63;;;24.22;31.58
52777;BME280;38656;54.260;20.822;2024-01-15T09:24:26;97768.31;;;22.29;32.69
52777;BME280;38656;54.260;20.822;2024-01-15T09:26:52;97759.16;;;22.15;34.19
52777;BME280;38656;54.260;20.822;2024-01-15T09:29:18;97779.13;;;20.53;35.09
52777;BME280;38656;54.260;20.822;2024-01-15T09:31:44;97769.16;;;22.35;32.95
52777;BME280;38656;54.260;20.822;2024-01-15T09:34:11;97762.53;;;20.56;35.07
52777;BME280;38656;54.260;20.822;2024-01-15T09:36:41;97750.16;;;24.29;32.00
52777;BME280;38656;54.260;20.822;2024-01-15T09:39:09;97747.94;;;22.69;33.44
52777;BME280;38656;54.260;20.822;2024-01-15T09:41:37;97748.78;;;20.75;34.60
52777;BME280;38656;54.260;20.822;2024-01-15T09:44:04;97742.56;;;24.31;31.97
52777;BME280;38656;54.260;20.822;2024-01-15T09:46:32;97738.69;;;23.42;32.60
52777;BME280;38656;54.260;20.822;2024-01-15T09:48:59;97732.53;;;25.35;30.22
52777;BME280;38656;54.260;20.822;2024-01-15T09:51:25;97737.72;;;22.66;33.23
52777;BME280;38656;54.260;20.822;2024-01-15T09:53:52;97733.41;;;20.38;36.04
52777;BME280;38656;54.260;20.822;2024-01-15T09:56:20;97728.94;;;24.51;30.09
52777;BME280;38656;54.260;20.822;2024-01-15T09:58:47;97732.50;;;20.27;36.37
52777;BME280;38656;54.260;20.822;2024-01-15T10:01:15;97714.88;;;27.09;31.28
52777;BME280;38656;54.260;20.822;2024-01-15T10:03:42;97722.66;;;22.70;32.91
52777;BME280;38656;54.260;20.822;2024-01-15T10:06:09;97731.75;;;23.10;31.91
52777;BME280;38656;54.260;20.822;2024-01-15T10:08:37;97720.19;;;27.28;27.44
52777;BME280;38656;54.260;20.822;2024-01-15T10:11:05;97725.78;;;23.99;29.49
52777;BME280;38656;54.260;20.822;2024-01-15T10:13:31;97715.66;;;22.69;33.99
52777;BME280;38656;54.260;20.822;2024-01-15T10:15:57;97732.19;;;19.96;36.39
52777;BME280;38656;54.260;20.822;2024-01-15T10:18:24;97732.38;;;19.45;37.17
52777;BME280;38656;54.260;20.822;2024-01-15T10:20:50;97725.03;;;23.13;31.22
52777;BME280;38656;54.260;20.822;2024-01-15T10:23:16;97733.91;;;19.19;35.76
52777;BME280;38656;54.260;20.822;2024-01-15T10:25:43;97731.72;;;20.91;34.04
52777;BME280;38656;54.260;20.822;2024-01-15T10:28:09;97722.25;;;19.91;36.18
52777;BME280;38656;54.260;20.822;2024-01-15T10:30:36;97707.44;;;23.46;31.86
52777;BME280;38656;54.260;20.822;2024-01-15T10:33:03;97714.22;;;19.47;35.84
52777;BME280;38656;54.260;20.822;2024-01-15T10:35:31;97715.28;;;21.25;34.89
52777;BME280;38656;54.260;20.822;2024-01-15T10:37:58;97713.59;;;20.39;34.35
52777;BME280;38656;54.260;20.822;2024-01-15T10:40:24;97706.19;;;19.69;35.79
52777;BME280;38656;54.260;20.822;2024-01-15T10:42:51;97707.06;;;21.47;33.72
52777;BME280;38656;54.260;20.822;2024-01-15T10:45:18;97717.00;;;20.02;36.21
52777;BME280;38656;54.260;20.822;2024-01-15T10:47:44;97713.19;;;20.52;32.66
52777;BME280;38656;54.260;20.822;2024-01-15T10:50:11;97706.19;;;20.51;34.70
52777;BME280;38656;54.260;20.822;2024-01-15T10:52:40;97696.31;;;20.24;33.42
52777;BME280;38656;54.260;20.822;2024-01-15T10:55:08;97695.53;;;24.47;29.33
52777;BME280;38656;54.260;20.822;2024-01-15T10:57:36;97704.16;;;18.76;34.37
52777;BME280;38656;54.260;20.822;2024-01-15T11:00:03;97694.72;;;20.98;34.67
52777;BME280;38656;54.260;20.822;2024-01-15T11:02:33;97695.25;;;20.95;35.22
52777;BME280;38656;54.260;20.822;2024-01-15T11:05:00;97676.50;;;21.59;33.96
52777;BME280;38656;54.260;20.822;2024-01-15T11:07:27;97681.38;;;21.67;33.65
52777;BME280;38656;54.260;20.822;2024-01-15T11:09:53;97684.47;;;22.42;32.55
52777;BME280;38656;54.260;20.822;2024-01-15T11:12:19;97694.13;;;22.49;32.99
52777;BME280;38656;54.260;20.822;2024-01-15T11:14:51;97694.41;;;19.70;34.04
52777;BME280;38656;54.260;20.822;2024-01-15T11:17:20;97680.31;;;20.34;34.43
52777;BME280;38656;54.260;20.822;2024-01-15T11:19:48;97673.03;;;21.63;33.60
52777;BME280;38656;54.260;20.822;2024-01-15T11:25:02;97675.34;;;25.71;28.27
52777;BME280;38656;54.260;20.822;2024-01-15T11:27:50;97668.53;;;22.87;28.70
52777;BME280;38656;54.260;20.822;2024-01-15T11:30:19;97674.16;;;23.01;29.19
52777;BME280;38656;54.260;20.822;2024-01-15T11:32:46;97666.50;;;23.44;29.44
52777;BME280;38656;54.260;20.822;2024-01-15T11:35:13;97666.13;;;21.98;30.53
52777;BME280;38656;54.260;20.822;2024-01-15T11:40:37;97664.41;;;23.31;29.88
52777;BME280;38656;54.260;20.822;2024-01-15T11:43:09;97660.69;;;21.67;31.09
52777;BME280;38656;54.260;20.822;2024-01-15T11:45:35;97669.78;;;21.03;29.60
52777;BME280;38656;54.260;20.822;2024-01-15T11:48:12;97656.88;;;24.86;29.21
52777;BME280;38656;54.260;20.822;2024-01-15T11:50:47;97651.69;;;23.97;27.21
52777;BME280;38656;54.260;20.822;2024-01-15T11:55:45;97652.31;;;27.61;25.62
52777;BME280;38656;54.260;20.822;2024-01-15T11:58:12;97658.22;;;23.80;26.95
52777;BME280;38656;54.260;20.822;2024-01-15T12:00:48;97645.44;;;22.24;30.79
52777;BME280;38656;54.260;20.822;2024-01-15T12:03:24;97645.09;;;24.13;28.64
52777;BME280;38656;54.260;20.822;2024-01-15T12:05:53;97649.13;;;21.51;29.64
52777;BME280;38656;54.260;20.822;2024-01-15T12:08:23;97658.31;;;18.16;34.06
52777;BME280;38656;54.260;20.822;2024-01-15T12:10:51;97641.25;;;21.39;31.90
52777;BME280;38656;54.260;20.822;2024-01-15T12:13:17;97651.00;;;21.66;31.40
52777;BME280;38656;54.260;20.822;2024-01-15T12:15:45;97647.50;;;19.18;33.78
52777;BME280;38656;54.260;20.822;2024-01-15T12:18:17;97642.53;;;21.27;30.58
52777;BME280;38656;54.260;20.822;2024-01-15T12:20:44;97643.84;;;21.14;30.26
52777;BME280;38656;54.260;20.822;2024-01-15T12:23:12;97636.06;;;22.32;30.41
52777;BME280;38656;54.260;20.822;2024-01-15T12:25:39;97641.28;;;19.84;33.19
52777;BME280;38656;54.260;20.822;2024-01-15T12:28:06;97639.16;;;19.59;33.10
52777;BME280;38656;54.260;20.822;2024-01-15T12:30:34;97636.47;;;23.01;28.85
52777;BME280;38656;54.260;20.822;2024-01-15T12:33:02;97632.63;;;20.37;31.62
52777;BME280;38656;54.260;20.822;2024-01-15T12:35:30;97631.13;;;21.57;30.39
52777;BME280;38656;54.260;20.822;2024-01-15T12:37:56;97626.88;;;20.55;33.78
52777;BME280;38656;54.260;20.822;2024-01-15T12:40:23;97635.75;;;18.80;34.78
52777;BME280;38656;54.260;20.822;2024-01-15T12:42:50;97646.66;;;17.07;37.66
52777;BME280;38656;54.260;20.822;2024-01-15T12:45:16;97633.81;;;21.52;32.39
52777;BME280;38656;54.260;20.822;2024-01-15T12:47:43;97629.91;;;19.00;37.30
52777;BME280;38656;54.260;20.822;2024-01-15T12:50:11;97637.09;;;22.72;32.26
52777;BME280;38656;54.260;20.822;2024-01-15T12:52:39;97634.34;;;19.61;35.91
52777;BME280;38656;54.260;20.822;2024-01-15T12:55:07;97633.44;;;20.05;34.68